Thursday, August 28, 2014, 1:21 AM EDT

KDYL, Doylestown Airport

Location: Doylestown, PA, United States Lat: 40.333
Local Time: 1:21 AM EDT ( 5:21 GMT) Lon: -75.117
Time Zone: US/Eastern Elev: 393 ft

Show me the last for .
Show Decoded

2014-08-27 23:54 METAR KDYL 280354Z AUTO 00000KT 10SM SCT041 24/21 A2990 RMK AO2 SLP117 T02440206
                 =
2014-08-27 22:54 METAR KDYL 280254Z AUTO 23004KT 10SM SCT047 SCT055 25/20 A2989 RMK AO2 SLP116
                 T02500200 58001 =
2014-08-27 20:54 METAR KDYL 280054Z AUTO 00000KT 10SM CLR 25/20 A2989 RMK AO2 SLP116 T02500200 =
2014-08-27 19:54 METAR KDYL 272354Z AUTO 27003KT 10SM CLR 28/19 A2990 RMK AO2 SLP119 T02780194
                 10317 20278 55004 =
2014-08-27 17:54 METAR KDYL 272154Z AUTO VRB05KT 10SM CLR 31/19 A2990 RMK AO2 SLP119 T03060189 =
2014-08-27 16:54 METAR KDYL 272054Z AUTO 28007KT 10SM CLR 31/19 A2991 RMK AO2 SLP122 T03110189
                 56018 =
2014-08-27 15:54 METAR KDYL 271954Z AUTO VRB05KT 10SM CLR 31/19 A2991 RMK AO2 SLP124 T03060189 =
2014-08-27 14:54 METAR KDYL 271854Z AUTO 00000KT 10SM SCT055 30/18 A2994 RMK AO2 SLP133 T03000183
                 =
2014-08-27 13:54 METAR KDYL 271754Z AUTO 10SM FEW050 31/17 A2996 RMK AO2 SLP140 T03060172 10306
                 20189 58026 =
2014-08-27 12:54 METAR KDYL 271654Z AUTO 21006KT 10SM CLR 30/17 A2999 RMK AO2 SLP149 T03000172 =
2014-08-27 11:54 METAR KDYL 271554Z AUTO 21005KT 10SM CLR 29/16 A3002 RMK AO2 SLP158 T02890161 =
2014-08-27 10:54 METAR KDYL 271454Z AUTO 28004KT 10SM CLR 28/18 A3004 RMK AO2 SLP167 T02780178
                 58007 =
2014-08-27 07:54 METAR KDYL 271154Z AUTO 00000KT 10SM CLR 19/17 A3006 RMK AO2 SLP175 T01890172
                 10194 20156 53005 =
2014-08-27 06:54 METAR KDYL 271054Z AUTO 00000KT 10SM CLR 16/16 A3006 RMK AO2 SLP174 T01610161 =
2014-08-27 05:54 METAR KDYL 270954Z AUTO 00000KT 10SM CLR 17/16 A3005 RMK AO2 SLP171 T01670161 =
2014-08-27 04:54 METAR KDYL 270854Z AUTO 00000KT 10SM CLR 17/17 A3005 RMK AO2 SLP170 T01720167
                 56008 =
2014-08-27 03:54 METAR KDYL 270754Z AUTO 00000KT 10SM CLR 18/18 A3005 RMK AO2 SLP171 T01780178 =
2014-08-27 02:54 METAR KDYL 270654Z AUTO 00000KT 10SM CLR 18/18 A3006 RMK AO2 SLP173 T01830178 =
2014-08-27 01:54 METAR KDYL 270554Z AUTO 00000KT 10SM CLR 19/18 A3007 RMK AO2 SLP178 T01940178
                 10244 20194 58012 =

Support USWX by starting your Amazon purchase here.